sensor_id;sensor_type;location;lat;lon;timestamp;pressure;altitude;pressure_sealevel;temperature;humidity
60465;BME280;46314;52.392;9.758;2024-01-15T00:01:11;98966.94;;;2.30;100.00
60465;BME280;46314;52.392;9.758;2024-01-15T00:03:37;98971.75;;;2.14;100.00
60465;BME280;46314;52.392;9.758;2024-01-15T00:06:04;98968.53;;;2.07;100.00
60465;BME280;46314;52.392;9.758;2024-01-15T00:08:31;98967.44;;;2.08;100.00
60465;BME280;46314;52.392;9.758;2024-01-15T00:10:57;98955.16;;;2.35;100.00
60465;BME280;46314;52.392;9.758;2024-01-15T00:13:25;98952.06;;;2.12;100.00
60465;BME280;46314;52.392;9.758;2024-01-15T00:15:51;98946.72;;;1.67;100.00
60465;BME280;46314;52.392;9.758;2024-01-15T00:18:18;98956.13;;;1.85;100.00
60465;BME280;46314;52.392;9.758;2024-01-15T00:20:45;98959.53;;;2.06;100.00
60465;BME280;46314;52.392;9.758;2024-01-15T00:23:14;98947.53;;;1.68;100.00
60465;BME280;46314;52.392;9.758;2024-01-15T00:25:41;98950.69;;;2.15;100.00
60465;BME280;46314;52.392;9.758;2024-01-15T00:28:07;98947.94;;;1.85;100.00
60465;BME280;46314;52.392;9.758;2024-01-15T00:30:35;98957.19;;;1.89;100.00
60465;BME280;46314;52.392;9.758;2024-01-15T00:33:01;98953.56;;;1.99;100.00
60465;BME280;46314;52.392;9.758;2024-01-15T00:35:28;98951.13;;;2.27;100.00
60465;BME280;46314;52.392;9.758;2024-01-15T00:37:54;98942.69;;;2.47;100.00
60465;BME280;46314;52.392;9.758;2024-01-15T00:40:21;98939.22;;;2.66;100.00
60465;BME280;46314;52.392;9.758;2024-01-15T00:42:47;98927.31;;;2.27;100.00
60465;BME280;46314;52.392;9.758;2024-01-15T00:45:14;98916.22;;;2.43;100.00
60465;BME280;46314;52.392;9.758;2024-01-15T00:47:42;98917.75;;;2.25;100.00
60465;BME280;46314;52.392;9.758;2024-01-15T00:50:09;98920.94;;;1.79;100.00
60465;BME280;46314;52.392;9.758;2024-01-15T00:52:36;98929.47;;;2.01;100.00
60465;BME280;46314;52.392;9.758;2024-01-15T00:55:03;98917.53;;;2.21;100.00
60465;BME280;46314;52.392;9.758;2024-01-15T00:57:29;98922.38;;;2.00;100.00
60465;BME280;46314;52.392;9.758;2024-01-15T00:59:56;98901.19;;;1.87;100.00
60465;BME280;46314;52.392;9.758;2024-01-15T01:02:22;98911.19;;;2.26;100.00
60465;BME280;46314;52.392;9.758;2024-01-15T01:04:50;98899.16;;;1.68;100.00
60465;BME280;46314;52.392;9.758;2024-01-15T01:07:16;98904.88;;;2.01;100.00
60465;BME280;46314;52.392;9.758;2024-01-15T01:09:43;98911.25;;;2.21;100.00
60465;BME280;46314;52.392;9.758;2024-01-15T01:12:09;98914.84;;;2.16;100.00
60465;BME280;46314;52.392;9.758;2024-01-15T01:14:36;98922.03;;;2.36;100.00
60465;BME280;46314;52.392;9.758;2024-01-15T01:17:03;98911.44;;;2.00;100.00
60465;BME280;46314;52.392;9.758;2024-01-15T01:19:29;98925.25;;;1.85;100.00
60465;BME280;46314;52.392;9.758;2024-01-15T01:21:57;98914.75;;;1.97;100.00
60465;BME280;46314;52.392;9.758;2024-01-15T01:24:24;98903.03;;;2.21;100.00
60465;BME280;46314;52.392;9.758;2024-01-15T01:26:50;98896.84;;;2.39;100.00
60465;BME280;46314;52.392;9.758;2024-01-15T01:29:17;98905.97;;;2.54;100.00
60465;BME280;46314;52.392;9.758;2024-01-15T01:31:43;98889.13;;;1.88;100.00
60465;BME280;46314;52.392;9.758;2024-01-15T01:34:10;98892.66;;;1.94;100.00
60465;BME280;46314;52.392;9.758;2024-01-15T01:36:37;98894.78;;;1.97;100.00
60465;BME280;46314;52.392;9.758;2024-01-15T01:39:05;98896.97;;;2.00;100.00
60465;BME280;46314;52.392;9.758;2024-01-15T01:41:31;98886.81;;;2.00;100.00
60465;BME280;46314;52.392;9.758;2024-01-15T01:43:57;98874.75;;;2.06;100.00
60465;BME280;46314;52.392;9.758;2024-01-15T01:46:24;98876.31;;;2.13;100.00
60465;BME280;46314;52.392;9.758;2024-01-15T01:48:52;98869.09;;;2.46;100.00
60465;BME280;46314;52.392;9.758;2024-01-15T01:51:20;98867.47;;;2.21;100.00
60465;BME280;46314;52.392;9.758;2024-01-15T01:53:48;98880.16;;;2.12;100.00
60465;BME280;46314;52.392;9.758;2024-01-15T01:56:17;98869.97;;;2.17;100.00
60465;BME280;46314;52.392;9.758;2024-01-15T01:58:44;98878.94;;;1.99;100.00
60465;BME280;46314;52.392;9.758;2024-01-15T02:01:11;98866.75;;;2.39;100.00
60465;BME280;46314;52.392;9.758;2024-01-15T02:03:39;98870.91;;;2.56;100.00
60465;BME280;46314;52.392;9.758;2024-01-15T02:06:06;98874.69;;;2.60;100.00
60465;BME280;46314;52.392;9.758;2024-01-15T02:08:33;98868.75;;;2.28;100.00
60465;BME280;46314;52.392;9.758;2024-01-15T02:11:00;98846.00;;;2.57;100.00
60465;BME280;46314;52.392;9.758;2024-01-15T02:13:29;98862.66;;;2.99;100.00
60465;BME280;46314;52.392;9.758;2024-01-15T02:15:55;98862.00;;;2.69;100.00
60465;BME280;46314;52.392;9.758;2024-01-15T02:18:22;98858.75;;;2.43;100.00
60465;BME280;46314;52.392;9.758;2024-01-15T02:20:49;98858.97;;;2.90;100.00
60465;BME280;46314;52.392;9.758;2024-01-15T02:23:17;98870.09;;;2.31;100.00
60465;BME280;46314;52.392;9.758;2024-01-15T02:25:44;98867.81;;;2.62;100.00
60465;BME280;46314;52.392;9.758;2024-01-15T02:28:12;98865.84;;;2.44;100.00
60465;BME280;46314;52.392;9.758;2024-01-15T02:30:40;98860.09;;;2.21;100.00
60465;BME280;46314;52.392;9.758;2024-01-15T02:33:07;98847.66;;;2.53;100.00
60465;BME280;46314;52.392;9.758;2024-01-15T02:35:34;98847.88;;;2.57;100.00
60465;BME280;46314;52.392;9.758;2024-01-15T02:38:01;98850.16;;;2.50;100.00
60465;BME280;46314;52.392;9.758;2024-01-15T02:40:29;98851.94;;;2.40;100.00
60465;BME280;46314;52.392;9.758;2024-01-15T02:42:56;98854.66;;;1.92;100.00
60465;BME280;46314;52.392;9.758;2024-01-15T02:45:22;98851.97;;;2.59;100.00
60465;BME280;46314;52.392;9.758;2024-01-15T02:47:49;98855.69;;;2.44;100.00
60465;BME280;46314;52.392;9.758;2024-01-15T02:50:16;98852.22;;;2.39;100.00
60465;BME280;46314;52.392;9.758;2024-01-15T02:52:42;98852.91;;;2.50;100.00
60465;BME280;46314;52.392;9.758;2024-01-15T02:55:09;98851.69;;;2.37;100.00
60465;BME280;46314;52.392;9.758;2024-01-15T02:57:37;98842.22;;;2.29;100.00
60465;BME280;46314;52.392;9.758;2024-01-15T03:00:04;98844.31;;;2.37;100.00
60465;BME280;46314;52.392;9.758;2024-01-15T03:02:31;98837.78;;;2.57;100.00
60465;BME280;46314;52.392;9.758;2024-01-15T03:04:57;98830.28;;;2.44;100.00
60465;BME280;46314;52.392;9.758;2024-01-15T03:07:24;98824.38;;;2.56;100.00
60465;BME280;46314;52.392;9.758;2024-01-15T03:09:50;98827.72;;;2.72;100.00
60465;BME280;46314;52.392;9.758;2024-01-15T03:12:17;98845.88;;;2.19;100.00
60465;BME280;46314;52.392;9.758;2024-01-15T03:14:45;98837.28;;;2.07;100.00
60465;BME280;46314;52.392;9.758;2024-01-15T03:17:11;98838.38;;;2.30;100.00
60465;BME280;46314;52.392;9.758;2024-01-15T03:19:37;98839.16;;;2.55;100.00
60465;BME280;46314;52.392;9.758;2024-01-15T03:22:04;98846.28;;;2.32;100.00
60465;BME280;46314;52.392;9.758;2024-01-15T03:24:31;98835.50;;;2.40;100.00
60465;BME280;46314;52.392;9.758;2024-01-15T03:26:58;98845.94;;;2.38;100.00
60465;BME280;46314;52.392;9.758;2024-01-15T03:29:25;98839.66;;;2.14;100.00
60465;BME280;46314;52.392;9.758;2024-01-15T03:31:53;98852.81;;;2.12;100.00
60465;BME280;46314;52.392;9.758;2024-01-15T03:34:19;98849.78;;;2.37;100.00
60465;BME280;46314;52.392;9.758;2024-01-15T03:36:46;98841.16;;;2.25;100.00
60465;BME280;46314;52.392;9.758;2024-01-15T03:39:13;98840.81;;;2.32;100.00
60465;BME280;46314;52.392;9.758;2024-01-15T03:41:39;98845.44;;;2.36;100.00
60465;BME280;46314;52.392;9.758;2024-01-15T03:44:06;98865.09;;;2.38;100.00
60465;BME280;46314;52.392;9.758;2024-01-15T03:46:32;98855.97;;;2.48;100.00
60465;BME280;46314;52.392;9.758;2024-01-15T03:49:00;98860.94;;;2.41;100.00
60465;BME280;46314;52.392;9.758;2024-01-15T03:51:27;98865.22;;;2.28;100.00
60465;BME280;46314;52.392;9.758;2024-01-15T03:53:53;98848.94;;;2.61;100.00
60465;BME280;46314;52.392;9.758;2024-01-15T03:56:19;98859.09;;;2.79;100.00
60465;BME280;46314;52.392;9.758;2024-01-15T03:58:46;98862.63;;;2.61;100.00
60465;BME280;46314;52.392;9.758;2024-01-15T04:01:12;98852.78;;;2.60;100.00
60465;BME280;46314;52.392;9.758;2024-01-15T04:03:39;98855.31;;;2.75;100.00
60465;BME280;46314;52.392;9.758;2024-01-15T04:06:07;98852.69;;;2.46;100.00
60465;BME280;46314;52.392;9.758;2024-01-15T04:08:34;98857.78;;;2.77;100.00
60465;BME280;46314;52.392;9.758;2024-01-15T04:11:00;98851.94;;;2.83;100.00
60465;BME280;46314;52.392;9.758;2024-01-15T04:13:27;98855.97;;;2.48;100.00
60465;BME280;46314;52.392;9.758;2024-01-15T04:15:53;98850.31;;;2.82;100.00
60465;BME280;46314;52.392;9.758;2024-01-15T04:18:20;98863.56;;;2.94;100.00
60465;BME280;46314;52.392;9.758;2024-01-15T04:20:46;98858.06;;;2.75;100.00
60465;BME280;46314;52.392;9.758;2024-01-15T04:23:14;98863.34;;;2.91;100.00
60465;BME280;46314;52.392;9.758;2024-01-15T04:25:41;98864.38;;;2.95;100.00
60465;BME280;46314;52.392;9.758;2024-01-15T04:28:07;98857.31;;;2.70;100.00
60465;BME280;46314;52.392;9.758;2024-01-15T04:30:34;98857.91;;;2.67;100.00
60465;BME280;46314;52.392;9.758;2024-01-15T04:33:00;98853.31;;;2.81;100.00
60465;BME280;46314;52.392;9.758;2024-01-15T04:35:27;98851.16;;;2.59;100.00
60465;BME280;46314;52.392;9.758;2024-01-15T04:37:53;98856.09;;;2.57;100.00
60465;BME280;46314;52.392;9.758;2024-01-15T04:40:21;98851.28;;;2.49;100.00
60465;BME280;46314;52.392;9.758;2024-01-15T04:42:47;98853.50;;;2.46;100.00
60465;BME280;46314;52.392;9.758;2024-01-15T04:45:14;98857.13;;;2.42;100.00
60465;BME280;46314;52.392;9.758;2024-01-15T04:47:40;98853.78;;;2.69;100.00
60465;BME280;46314;52.392;9.758;2024-01-15T04:50:08;98853.09;;;2.77;100.00
60465;BME280;46314;52.392;9.758;2024-01-15T04:52:34;98855.56;;;2.79;100.00
60465;BME280;46314;52.392;9.758;2024-01-15T04:55:00;98842.66;;;2.60;100.00
60465;BME280;46314;52.392;9.758;2024-01-15T04:57:28;98840.06;;;2.50;100.00
60465;BME280;46314;52.392;9.758;2024-01-15T04:59:55;98844.19;;;2.47;100.00
60465;BME280;46314;52.392;9.758;2024-01-15T05:02:21;98843.09;;;2.49;100.00
60465;BME280;46314;52.392;9.758;2024-01-15T05:04:48;98846.06;;;2.52;100.00
60465;BME280;46314;52.392;9.758;2024-01-15T05:07:14;98849.97;;;2.22;100.00
60465;BME280;46314;52.392;9.758;2024-01-15T05:09:40;98835.19;;;2.23;100.00
60465;BME280;46314;52.392;9.758;2024-01-15T05:12:07;98841.66;;;1.79;100.00
60465;BME280;46314;52.392;9.758;2024-01-15T05:14:35;98834.94;;;1.95;100.00
60465;BME280;46314;52.392;9.758;2024-01-15T05:17:02;98826.22;;;2.17;100.00
60465;BME280;46314;52.392;9.758;2024-01-15T05:19:28;98832.22;;;2.19;100.00
60465;BME280;46314;52.392;9.758;2024-01-15T05:21:55;98823.19;;;1.95;100.00
60465;BME280;46314;52.392;9.758;2024-01-15T05:24:22;98821.97;;;2.30;100.00
60465;BME280;46314;52.392;9.758;2024-01-15T05:26:48;98822.75;;;2.55;100.00
60465;BME280;46314;52.392;9.758;2024-01-15T05:29:15;98818.31;;;2.59;100.00
60465;BME280;46314;52.392;9.758;2024-01-15T05:31:42;98815.50;;;2.45;100.00
60465;BME280;46314;52.392;9.758;2024-01-15T05:34:09;98833.59;;;2.41;100.00
60465;BME280;46314;52.392;9.758;2024-01-15T05:36:36;98823.59;;;2.31;100.00
60465;BME280;46314;52.392;9.758;2024-01-15T05:39:03;98824.06;;;2.38;100.00
60465;BME280;46314;52.392;9.758;2024-01-15T05:41:29;98836.25;;;2.46;100.00
60465;BME280;46314;52.392;9.758;2024-01-15T05:43:55;98824.75;;;2.25;100.00
60465;BME280;46314;52.392;9.758;2024-01-15T05:46:22;98823.72;;;2.21;100.00
60465;BME280;46314;52.392;9.758;2024-01-15T05:48:50;98822.41;;;2.37;100.00
60465;BME280;46314;52.392;9.758;2024-01-15T05:51:16;98825.03;;;2.47;100.00
60465;BME280;46314;52.392;9.758;2024-01-15T05:53:43;98822.72;;;2.36;100.00
60465;BME280;46314;52.392;9.758;2024-01-15T05:56:09;98822.47;;;2.32;100.00
60465;BME280;46314;52.392;9.758;2024-01-15T05:58:36;98828.22;;;2.55;100.00
60465;BME280;46314;52.392;9.758;2024-01-15T06:01:03;98822.53;;;2.51;100.00
60465;BME280;46314;52.392;9.758;2024-01-15T06:03:30;98833.97;;;2.34;100.00
60465;BME280;46314;52.392;9.758;2024-01-15T06:05:58;98830.09;;;2.59;100.00
60465;BME280;46314;52.392;9.758;2024-01-15T06:08:25;98830.38;;;2.58;100.00
60465;BME280;46314;52.392;9.758;2024-01-15T06:10:52;98825.38;;;2.41;100.00
60465;BME280;46314;52.392;9.758;2024-01-15T06:13:18;98828.78;;;2.33;100.00
60465;BME280;46314;52.392;9.758;2024-01-15T06:15:45;98820.69;;;2.22;100.00
60465;BME280;46314;52.392;9.758;2024-01-15T06:18:12;98833.38;;;2.13;100.00
60465;BME280;46314;52.392;9.758;2024-01-15T06:20:39;98823.13;;;2.00;100.00
60465;BME280;46314;52.392;9.758;2024-01-15T06:23:08;98828.72;;;2.14;100.00
60465;BME280;46314;52.392;9.758;2024-01-15T06:25:35;98826.81;;;1.90;100.00
60465;BME280;46314;52.392;9.758;2024-01-15T06:28:02;98826.16;;;1.98;100.00
60465;BME280;46314;52.392;9.758;2024-01-15T06:30:28;98832.97;;;2.01;100.00
60465;BME280;46314;52.392;9.758;2024-01-15T06:32:55;98835.88;;;2.10;100.00
60465;BME280;46314;52.392;9.758;2024-01-15T06:35:21;98830.53;;;1.99;100.00
60465;BME280;46314;52.392;9.758;2024-01-15T06:37:49;98829.34;;;2.05;100.00
60465;BME280;46314;52.392;9.758;2024-01-15T06:40:17;98825.16;;;2.37;100.00
60465;BME280;46314;52.392;9.758;2024-01-15T06:42:43;98818.34;;;2.35;100.00
60465;BME280;46314;52.392;9.758;2024-01-15T06:45:10;98823.59;;;2.31;100.00
60465;BME280;46314;52.392;9.758;2024-01-15T06:47:36;98825.69;;;2.39;100.00
60465;BME280;46314;52.392;9.758;2024-01-15T06:50:03;98828.50;;;2.34;100.00
60465;BME280;46314;52.392;9.758;2024-01-15T06:52:30;98832.59;;;2.56;100.00
60465;BME280;46314;52.392;9.758;2024-01-15T06:54:56;98840.22;;;2.59;100.00
60465;BME280;46314;52.392;9.758;2024-01-15T06:57:24;98836.09;;;2.37;100.00
60465;BME280;46314;52.392;9.758;2024-01-15T06:59:51;98839.78;;;2.52;100.00
60465;BME280;46314;52.392;9.758;2024-01-15T07:02:17;98848.69;;;2.38;100.00
60465;BME280;46314;52.392;9.758;2024-01-15T07:04:44;98827.13;;;2.56;100.00
60465;BME280;46314;52.392;9.758;2024-01-15T07:07:10;98845.13;;;2.81;100.00
60465;BME280;46314;52.392;9.758;2024-01-15T07:09:37;98830.38;;;2.58;100.00
60465;BME280;46314;52.392;9.758;2024-01-15T07:12:04;98844.44;;;2.70;100.00
60465;BME280;46314;52.392;9.758;2024-01-15T07:14:32;98843.94;;;2.87;100.00
60465;BME280;46314;52.392;9.758;2024-01-15T07:16:58;98851.63;;;2.66;100.00
60465;BME280;46314;52.392;9.758;2024-01-15T07:19:24;98850.41;;;2.53;100.00
60465;BME280;46314;52.392;9.758;2024-01-15T07:21:51;98856.25;;;2.65;100.00
60465;BME280;46314;52.392;9.758;2024-01-15T07:24:21;98866.75;;;2.58;100.00
60465;BME280;46314;52.392;9.758;2024-01-15T07:26:48;98857.03;;;2.71;100.00
60465;BME280;46314;52.392;9.758;2024-01-15T07:29:14;98846.63;;;2.25;100.00
60465;BME280;46314;52.392;9.758;2024-01-15T07:31:47;98852.47;;;2.18;100.00
60465;BME280;46314;52.392;9.758;2024-01-15T07:34:14;98851.41;;;2.38;100.00
60465;BME280;46314;52.392;9.758;2024-01-15T07:36:41;98855.44;;;2.22;100.00
60465;BME280;46314;52.392;9.758;2024-01-15T07:39:07;98858.66;;;2.29;100.00
60465;BME280;46314;52.392;9.758;2024-01-15T07:41:34;98855.53;;;2.60;100.00
60465;BME280;46314;52.392;9.758;2024-01-15T07:44:02;98859.44;;;2.05;100.00
60465;BME280;46314;52.392;9.758;2024-01-15T07:46:28;98856.19;;;2.03;100.00
60465;BME280;46314;52.392;9.758;2024-01-15T07:48:56;98849.38;;;2.25;100.00
60465;BME280;46314;52.392;9.758;2024-01-15T07:51:23;98863.09;;;2.20;100.00
60465;BME280;46314;52.392;9.758;2024-01-15T07:53:52;98867.91;;;1.80;100.00
60465;BME280;46314;52.392;9.758;2024-01-15T07:56:18;98854.41;;;1.59;100.00
60465;BME280;46314;52.392;9.758;2024-01-15T07:58:45;98860.56;;;1.75;100.00
60465;BME280;46314;52.392;9.758;2024-01-15T08:01:11;98855.25;;;1.55;100.00
60465;BME280;46314;52.392;9.758;2024-01-15T08:03:38;98861.13;;;2.01;100.00
60465;BME280;46314;52.392;9.758;2024-01-15T08:06:06;98875.13;;;1.95;100.00
60465;BME280;46314;52.392;9.758;2024-01-15T08:08:33;98868.63;;;1.91;100.00
60465;BME280;46314;52.392;9.758;2024-01-15T08:10:59;98870.22;;;1.92;100.00
60465;BME280;46314;52.392;9.758;2024-01-15T08:13:26;98875.38;;;1.98;100.00
60465;BME280;46314;52.392;9.758;2024-01-15T08:15:53;98870.00;;;1.88;100.00
60465;BME280;46314;52.392;9.758;2024-01-15T08:18:19;98874.03;;;1.66;100.00
60465;BME280;46314;52.392;9.758;2024-01-15T08:20:46;98883.81;;;2.02;100.00
60465;BME280;46314;52.392;9.758;2024-01-15T08:23:14;98879.91;;;1.49;100.00
60465;BME280;46314;52.392;9.758;2024-01-15T08:25:41;98869.84;;;1.74;100.00
60465;BME280;46314;52.392;9.758;2024-01-15T08:28:07;98868.81;;;1.70;100.00
60465;BME280;46314;52.392;9.758;2024-01-15T08:30:34;98871.00;;;1.68;100.00
60465;BME280;46314;52.392;9.758;2024-01-15T08:33:00;98875.94;;;1.95;100.00
60465;BME280;46314;52.392;9.758;2024-01-15T08:35:37;98878.59;;;1.76;100.00
60465;BME280;46314;52.392;9.758;2024-01-15T08:38:03;98883.38;;;1.89;100.00
60465;BME280;46314;52.392;9.758;2024-01-15T08:40:31;98879.88;;;1.84;100.00
60465;BME280;46314;52.392;9.758;2024-01-15T08:42:57;98887.56;;;1.82;100.00
60465;BME280;46314;52.392;9.758;2024-01-15T08:45:24;98886.06;;;2.24;100.00
60465;BME280;46314;52.392;9.758;2024-01-15T08:47:51;98879.97;;;2.51;100.00
60465;BME280;46314;52.392;9.758;2024-01-15T08:50:17;98882.94;;;2.79;100.00
60465;BME280;46314;52.392;9.758;2024-01-15T08:52:44;98871.63;;;2.86;100.00
60465;BME280;46314;52.392;9.758;2024-01-15T08:55:10;98873.97;;;3.11;100.00
60465;BME280;46314;52.392;9.758;2024-01-15T08:57:38;98870.81;;;3.04;100.00
60465;BME280;46314;52.392;9.758;2024-01-15T09:00:05;98874.50;;;3.32;100.00
60465;BME280;46314;52.392;9.758;2024-01-15T09:02:32;98866.72;;;2.82;100.00
60465;BME280;46314;52.392;9.758;2024-01-15T09:04:58;98871.78;;;2.03;100.00
60465;BME280;46314;52.392;9.758;2024-01-15T09:07:25;98876.22;;;2.47;100.00
60465;BME280;46314;52.392;9.758;2024-01-15T09:09:52;98868.41;;;2.59;100.00
60465;BME280;46314;52.392;9.758;2024-01-15T09:12:18;98856.44;;;2.31;100.00
60465;BME280;46314;52.392;9.758;2024-01-15T09:14:46;98865.09;;;2.14;100.00
60465;BME280;46314;52.392;9.758;2024-01-15T09:17:13;98867.88;;;2.33;100.00
60465;BME280;46314;52.392;9.758;2024-01-15T09:19:39;98871.19;;;2.54;100.00
60465;BME280;46314;52.392;9.758;2024-01-15T09:22:06;98875.00;;;2.34;100.00
60465;BME280;46314;52.392;9.758;2024-01-15T09:24:32;98870.50;;;2.43;100.00
60465;BME280;46314;52.392;9.758;2024-01-15T09:26:59;98874.16;;;2.34;100.00
60465;BME280;46314;52.392;9.758;2024-01-15T09:29:25;98872.97;;;2.45;100.00
60465;BME280;46314;52.392;9.758;2024-01-15T09:31:53;98879.06;;;2.61;100.00
60465;BME280;46314;52.392;9.758;2024-01-15T09:34:20;98878.09;;;2.52;100.00
60465;BME280;46314;52.392;9.758;2024-01-15T09:36:47;98885.63;;;3.03;100.00
60465;BME280;46314;52.392;9.758;2024-01-15T09:39:14;98879.91;;;2.80;100.00
60465;BME280;46314;52.392;9.758;2024-01-15T09:41:40;98879.56;;;2.63;100.00
60465;BME280;46314;52.392;9.758;2024-01-15T09:44:07;98892.41;;;2.68;100.00
60465;BME280;46314;52.392;9.758;2024-01-15T09:46:55;98895.09;;;3.11;100.00
60465;BME280;46314;52.392;9.758;2024-01-15T09:49:21;98894.41;;;2.81;100.00
60465;BME280;46314;52.392;9.758;2024-01-15T09:51:48;98898.34;;;3.13;100.00
60465;BME280;46314;52.392;9.758;2024-01-15T09:54:28;98899.53;;;2.63;100.00
60465;BME280;46314;52.392;9.758;2024-01-15T09:56:55;98892.94;;;2.89;100.00
60465;BME280;46314;52.392;9.758;2024-01-15T09:59:22;98900.59;;;2.43;100.00
60465;BME280;46314;52.392;9.758;2024-01-15T10:01:50;98890.63;;;2.28;100.00
60465;BME280;46314;52.392;9.758;2024-01-15T10:04:18;98899.94;;;2.76;100.00
60465;BME280;46314;52.392;9.758;2024-01-15T10:06:45;98905.22;;;2.91;100.00
60465;BME280;46314;52.392;9.758;2024-01-15T10:09:13;98907.78;;;2.82;100.00
60465;BME280;46314;52.392;9.758;2024-01-15T10:11:41;98913.34;;;2.77;100.00
60465;BME280;46314;52.392;9.758;2024-01-15T10:14:07;98912.06;;;2.45;100.00
60465;BME280;46314;52.392;9.758;2024-01-15T10:16:34;98903.16;;;2.59;100.00
60465;BME280;46314;52.392;9.758;2024-01-15T10:19:01;98914.34;;;2.62;100.00
60465;BME280;46314;52.392;9.758;2024-01-15T10:21:31;98904.50;;;2.61;100.00
60465;BME280;46314;52.392;9.758;2024-01-15T10:24:00;98908.47;;;2.26;100.00
60465;BME280;46314;52.392;9.758;2024-01-15T10:26:27;98918.22;;;2.08;100.00
60465;BME280;46314;52.392;9.758;2024-01-15T10:28:53;98900.44;;;2.59;100.00
60465;BME280;46314;52.392;9.758;2024-01-15T10:31:20;98904.94;;;2.93;100.00
60465;BME280;46314;52.392;9.758;2024-01-15T10:33:48;98909.69;;;2.63;100.00
60465;BME280;46314;52.392;9.758;2024-01-15T10:36:16;98903.97;;;2.35;100.00
60465;BME280;46314;52.392;9.758;2024-01-15T10:38:44;98898.38;;;2.45;100.00
60465;BME280;46314;52.392;9.758;2024-01-15T10:41:11;98885.03;;;2.87;100.00
60465;BME280;46314;52.392;9.758;2024-01-15T10:43:38;98888.72;;;2.53;100.00
60465;BME280;46314;52.392;9.758;2024-01-15T10:46:05;98893.00;;;3.02;100.00
60465;BME280;46314;52.392;9.758;2024-01-15T10:48:32;98894.88;;;3.07;100.00
60465;BME280;46314;52.392;9.758;2024-01-15T10:50:59;98901.09;;;3.32;100.00
60465;BME280;46314;52.392;9.758;2024-01-15T10:53:26;98894.91;;;2.83;100.00
60465;BME280;46314;52.392;9.758;2024-01-15T10:55:54;98893.91;;;2.98;100.00
60465;BME280;46314;52.392;9.758;2024-01-15T10:58:21;98890.28;;;2.83;100.00
60465;BME280;46314;52.392;9.758;2024-01-15T11:00:48;98891.47;;;2.96;100.00
60465;BME280;46314;52.392;9.758;2024-01-15T11:03:16;98879.59;;;3.39;100.00
60465;BME280;46314;52.392;9.758;2024-01-15T11:05:43;98884.28;;;3.19;100.00
60465;BME280;46314;52.392;9.758;2024-01-15T11:08:10;98892.63;;;2.71;100.00
60465;BME280;46314;52.392;9.758;2024-01-15T11:10:38;98893.09;;;3.16;100.00
60465;BME280;46314;52.392;9.758;2024-01-15T11:13:08;98886.50;;;2.98;100.00
60465;BME280;46314;52.392;9.758;2024-01-15T11:15:54;98882.19;;;3.11;100.00
60465;BME280;46314;52.392;9.758;2024-01-15T11:18:21;98875.53;;;2.79;100.00
60465;BME280;46314;52.392;9.758;2024-01-15T11:21:19;98884.88;;;3.35;100.00
60465;BME280;46314;52.392;9.758;2024-01-15T11:23:47;98879.09;;;3.18;100.00
60465;BME280;46314;52.392;9.758;2024-01-15T11:26:34;98883.41;;;3.24;100.00
60465;BME280;46314;52.392;9.758;2024-01-15T11:29:03;98877.56;;;3.12;100.00
60465;BME280;46314;52.392;9.758;2024-01-15T11:31:56;98870.72;;;3.09;100.00
60465;BME280;46314;52.392;9.758;2024-01-15T11:34:53;98868.66;;;3.39;100.00
60465;BME280;46314;52.392;9.758;2024-01-15T11:37:21;98877.56;;;3.31;100.00
60465;BME280;46314;52.392;9.758;2024-01-15T11:39:47;98867.25;;;3.74;100.00
60465;BME280;46314;52.392;9.758;2024-01-15T11:42:14;98865.59;;;3.40;100.00
60465;BME280;46314;52.392;9.758;2024-01-15T11:44:42;98868.47;;;3.49;100.00
60465;BME280;46314;52.392;9.758;2024-01-15T11:47:10;98868.28;;;3.46;100.00
60465;BME280;46314;52.392;9.758;2024-01-15T11:49:59;98869.19;;;3.22;100.00
60465;BME280;46314;52.392;9.758;2024-01-15T11:52:32;98871.53;;;3.29;100.00
60465;BME280;46314;52.392;9.758;2024-01-15T11:55:01;98867.13;;;3.14;100.00
60465;BME280;46314;52.392;9.758;2024-01-15T11:57:40;98869.63;;;3.29;100.00
60465;BME280;46314;52.392;9.758;2024-01-15T12:00:10;98871.56;;;2.91;100.00
60465;BME280;46314;52.392;9.758;2024-01-15T12:02:37;98865.03;;;2.87;100.00
60465;BME280;46314;52.392;9.758;2024-01-15T12:05:04;98866.00;;;2.96;100.00
60465;BME280;46314;52.392;9.758;2024-01-15T12:07:31;98864.53;;;3.22;100.00
60465;BME280;46314;52.392;9.758;2024-01-15T12:09:58;98857.47;;;3.16;100.00
60465;BME280;46314;52.392;9.758;2024-01-15T12:12:29;98858.66;;;3.29;100.00
60465;BME280;46314;52.392;9.758;2024-01-15T12:14:58;98861.56;;;3.38;100.00
60465;BME280;46314;52.392;9.758;2024-01-15T12:17:26;98865.41;;;3.18;100.00
60465;BME280;46314;52.392;9.758;2024-01-15T12:19:52;98859.03;;;3.22;100.00
60465;BME280;46314;52.392;9.758;2024-01-15T12:22:19;98858.22;;;2.84;100.00
60465;BME280;46314;52.392;9.758;2024-01-15T12:24:45;98853.63;;;3.36;100.00
60465;BME280;46314;52.392;9.758;2024-01-15T12:27:12;98865.09;;;3.19;100.00
60465;BME280;46314;52.392;9.758;2024-01-15T12:29:39;98864.81;;;3.02;100.00
60465;BME280;46314;52.392;9.758;2024-01-15T12:32:05;98868.06;;;3.23;100.00
60465;BME280;46314;52.392;9.758;2024-01-15T12:34:33;98861.78;;;3.22;100.00
60465;BME280;46314;52.392;9.758;2024-01-15T12:37:00;98863.88;;;3.12;100.00
60465;BME280;46314;52.392;9.758;2024-01-15T12:39:26;98882.84;;;3.41;100.00
60465;BME280;46314;52.392;9.758;2024-01-15T12:41:53;98874.28;;;3.29;100.00
60465;BME280;46314;52.392;9.758;2024-01-15T12:44:19;98872.44;;;3.05;100.00
60465;BME280;46314;52.392;9.758;2024-01-15T12:46:46;98872.88;;;3.50;100.00
60465;BME280;46314;52.392;9.758;2024-01-15T12:49:13;98864.28;;;3.71;100.00
60465;BME280;46314;52.392;9.758;2024-01-15T12:51:40;98871.16;;;3.54;100.00
60465;BME280;46314;52.392;9.758;2024-01-15T12:54:07;98869.41;;;3.91;100.00
60465;BME280;46314;52.392;9.758;2024-01-15T12:56:34;98878.78;;;3.57;100.00
60465;BME280;46314;52.392;9.758;2024-01-15T12:59:00;98870.56;;;3.57;100.00
60465;BME280;46314;52.392;9.758;2024-01-15T13:01:28;98887.50;;;3.59;100.00